createdAt,value
2022-10-01T00:01:48.576Z,2.63
2022-10-01T00:04:37.194Z,2.40
2022-10-01T00:07:23.044Z,2.70
2022-10-01T00:10:10.966Z,2.60
2022-10-01T00:12:57.118Z,2.45
2022-10-01T00:15:42.512Z,2.90
2022-10-01T00:18:29.633Z,2.63
2022-10-01T00:21:20.505Z,2.90
2022-10-01T00:24:07.043Z,3.70
2022-10-01T00:26:52.385Z,3.13
2022-10-01T00:29:38.704Z,3.05
2022-10-01T00:32:25.387Z,3.20
2022-10-01T00:35:11.006Z,3.40
2022-10-01T00:37:56.474Z,3.25
2022-10-01T00:40:42.291Z,2.90
2022-10-01T00:43:31.106Z,2.85
2022-10-01T00:46:25.389Z,4.15
2022-10-01T00:49:19.026Z,3.70
2022-10-01T00:52:10.725Z,3.13
2022-10-01T00:55:03.091Z,3.30
2022-10-01T00:57:48.528Z,4.85
2022-10-01T01:00:37.710Z,3.75
2022-10-01T01:03:23.482Z,4.82
2022-10-01T01:06:09.627Z,4.00
2022-10-01T01:08:56.163Z,4.22
2022-10-01T01:11:57.857Z,5.68
2022-10-01T01:15:08.225Z,3.10
2022-10-01T01:17:56.655Z,3.72
2022-10-01T01:20:47.802Z,4.32
2022-10-01T01:23:51.226Z,4.57
2022-10-01T01:27:02.309Z,5.82
2022-10-01T01:30:05.174Z,3.72
2022-10-01T01:33:15.734Z,4.13
2022-10-01T01:36:18.009Z,4.30
2022-10-01T01:39:07.089Z,5.55
2022-10-01T01:41:58.434Z,5.70
2022-10-01T01:44:46.574Z,5.20
2022-10-01T01:47:33.542Z,4.10
2022-10-01T01:50:19.366Z,4.45
2022-10-01T01:53:04.799Z,4.80
2022-10-01T01:55:50.544Z,3.30
2022-10-01T01:58:37.330Z,4.03
2022-10-01T02:01:32.021Z,4.00
2022-10-01T02:04:35.790Z,3.60
2022-10-01T02:07:48.795Z,5.15
2022-10-01T02:11:18.952Z,4.45
2022-10-01T02:14:35.649Z,4.47
2022-10-01T02:17:32.774Z,4.30
2022-10-01T02:20:29.179Z,5.30
2022-10-01T02:23:20.093Z,4.43
2022-10-01T02:26:12.401Z,4.18
2022-10-01T02:29:03.201Z,3.90
2022-10-01T02:31:53.160Z,4.50
2022-10-01T02:34:40.710Z,4.45
2022-10-01T02:37:27.680Z,4.93
2022-10-01T02:40:16.352Z,6.53
2022-10-01T02:43:09.072Z,4.90
2022-10-01T02:46:00.590Z,4.18
2022-10-01T02:48:46.033Z,5.97
2022-10-01T02:51:35.914Z,4.82
2022-10-01T02:54:31.166Z,4.50
2022-10-01T02:57:28.884Z,5.55
2022-10-01T03:00:21.385Z,4.50
2022-10-01T03:03:06.993Z,3.90
2022-10-01T03:05:52.447Z,4.20
2022-10-01T03:08:37.908Z,4.68
2022-10-01T03:11:23.648Z,5.72
2022-10-01T03:14:10.803Z,4.40
2022-10-01T03:16:56.081Z,4.57
2022-10-01T03:19:41.936Z,4.45
2022-10-01T03:22:27.421Z,6.28
2022-10-01T03:25:14.057Z,6.68
2022-10-01T03:27:59.654Z,4.63
2022-10-01T03:30:45.392Z,4.80
2022-10-01T03:33:30.764Z,4.35
2022-10-01T03:36:16.143Z,4.68
2022-10-01T03:39:02.193Z,4.50
2022-10-01T03:41:47.659Z,4.30
2022-10-01T03:44:33.737Z,4.00
2022-10-01T03:47:19.148Z,5.80
2022-10-01T03:50:04.888Z,3.70
2022-10-01T03:52:50.979Z,4.25
2022-10-01T03:55:36.400Z,5.45
2022-10-01T03:58:23.369Z,3.13
2022-10-01T04:01:08.797Z,4.68
2022-10-01T04:03:54.488Z,3.63
2022-10-01T04:06:40.203Z,3.92
2022-10-01T04:09:25.723Z,3.67
2022-10-01T04:12:11.417Z,3.78
2022-10-01T04:14:56.755Z,3.55
2022-10-01T04:17:45.862Z,3.80
2022-10-01T04:20:33.589Z,6.40
2022-10-01T04:23:19.196Z,3.28
2022-10-01T04:26:04.731Z,5.25
2022-10-01T04:28:50.155Z,5.18
2022-10-01T04:31:36.145Z,4.70
2022-10-01T04:34:41.864Z,4.68
2022-10-01T04:37:30.254Z,3.95
2022-10-01T04:40:15.485Z,3.90
2022-10-01T04:43:05.582Z,3.42
2022-10-01T04:45:51.016Z,4.03
2022-10-01T04:48:36.565Z,3.80
2022-10-01T04:51:22.149Z,5.03
2022-10-01T04:54:07.749Z,3.72
2022-10-01T04:56:53.255Z,4.10
2022-10-01T04:59:38.850Z,3.97
2022-10-01T05:02:24.446Z,4.55
2022-10-01T05:05:10.156Z,4.07
2022-10-01T05:07:55.924Z,3.72
2022-10-01T05:10:41.217Z,4.18
2022-10-01T05:13:30.104Z,4.03
2022-10-01T05:16:15.612Z,4.68
2022-10-01T05:19:01.040Z,3.63
2022-10-01T05:21:46.596Z,4.10
2022-10-01T05:24:32.011Z,5.25
2022-10-01T05:27:17.874Z,5.60
2022-10-01T05:30:07.045Z,5.75
2022-10-01T05:32:57.050Z,4.97
2022-10-01T05:35:42.633Z,4.78
2022-10-01T05:38:27.996Z,5.65
2022-10-01T05:41:13.598Z,5.78
2022-10-01T05:43:59.225Z,6.45
2022-10-01T05:46:44.766Z,4.35
2022-10-01T05:49:30.327Z,4.15
2022-10-01T05:52:18.890Z,4.55
2022-10-01T05:55:05.009Z,5.30
2022-10-01T05:57:59.084Z,4.53
2022-10-01T06:00:44.566Z,5.40
2022-10-01T06:03:30.091Z,5.97
2022-10-01T06:06:15.412Z,5.25
2022-10-01T06:09:00.925Z,4.25
2022-10-01T06:11:48.140Z,5.80
2022-10-01T06:14:33.942Z,5.25
2022-10-01T06:17:19.139Z,4.00
2022-10-01T06:20:04.978Z,5.63
2022-10-01T06:22:56.189Z,4.13
2022-10-01T06:25:43.528Z,4.95
2022-10-01T06:28:29.116Z,4.15
2022-10-01T06:31:14.643Z,5.32
2022-10-01T06:34:00.864Z,3.42
2022-10-01T06:36:45.877Z,5.93
2022-10-01T06:39:31.335Z,3.85
2022-10-01T06:42:16.940Z,5.38
2022-10-01T06:45:02.524Z,4.43
2022-10-01T06:48:03.011Z,3.85
2022-10-01T06:50:50.145Z,6.47
2022-10-01T06:53:35.769Z,4.75
2022-10-01T06:56:21.285Z,4.60
2022-10-01T06:59:06.560Z,4.13
2022-10-01T07:01:56.313Z,6.30
2022-10-01T07:04:42.519Z,4.45
2022-10-01T07:07:37.173Z,5.55
2022-10-01T07:10:23.263Z,4.10
2022-10-01T07:13:14.975Z,4.43
2022-10-01T07:16:03.872Z,4.13
2022-10-01T07:18:49.494Z,5.32
2022-10-01T07:21:35.350Z,4.50
2022-10-01T07:24:20.886Z,3.55
2022-10-01T07:27:08.810Z,3.72
2022-10-01T07:29:55.184Z,3.63
2022-10-01T07:32:45.046Z,4.53
2022-10-01T07:35:30.317Z,4.07
2022-10-01T07:38:16.647Z,2.88
2022-10-01T07:41:03.364Z,3.67
2022-10-01T07:43:49.841Z,5.55
2022-10-01T07:46:35.708Z,3.72
2022-10-01T07:49:21.379Z,4.13
2022-10-01T07:52:12.347Z,4.10
2022-10-01T07:54:58.586Z,3.45
2022-10-01T07:57:44.062Z,3.80
2022-10-01T08:00:32.959Z,3.22
2022-10-01T08:03:18.523Z,4.13
2022-10-01T08:06:05.842Z,3.35
2022-10-01T08:08:51.177Z,3.55
2022-10-01T08:11:38.048Z,4.07
2022-10-01T08:14:23.441Z,3.55
2022-10-01T08:17:08.724Z,3.38
2022-10-01T08:19:54.108Z,3.20
2022-10-01T08:22:42.343Z,3.90
2022-10-01T08:25:28.306Z,3.25
2022-10-01T08:28:14.234Z,3.90
2022-10-01T08:31:06.680Z,3.67
2022-10-01T08:33:52.828Z,3.17
2022-10-01T08:36:38.118Z,3.13
2022-10-01T08:39:23.891Z,2.67
2022-10-01T08:42:43.721Z,3.03
2022-10-01T08:45:46.364Z,5.18
2022-10-01T08:49:00.824Z,3.38
2022-10-01T08:52:14.608Z,3.22
2022-10-01T08:55:16.165Z,3.22
2022-10-01T08:58:04.699Z,3.28
2022-10-01T09:00:50.190Z,2.92
2022-10-01T09:03:36.469Z,2.70
2022-10-01T09:06:26.936Z,2.47
2022-10-01T09:09:35.658Z,2.50
2022-10-01T09:12:53.129Z,2.70
2022-10-01T09:16:13.603Z,2.80
2022-10-01T09:19:24.103Z,2.83
2022-10-01T09:22:39.101Z,2.63
2022-10-01T09:25:27.033Z,2.40
2022-10-01T09:28:31.972Z,3.22
2022-10-01T09:31:40.528Z,2.58
2022-10-01T09:34:35.553Z,2.83
2022-10-01T09:37:32.438Z,2.80
2022-10-01T09:40:26.421Z,3.05
2022-10-01T09:43:12.600Z,2.80
2022-10-01T09:45:58.797Z,2.38
2022-10-01T09:49:03.263Z,2.42
2022-10-01T09:51:53.033Z,2.85
2022-10-01T09:54:44.877Z,3.20
2022-10-01T09:57:43.200Z,2.22
2022-10-01T10:00:28.764Z,2.47
2022-10-01T10:03:28.787Z,2.58
2022-10-01T10:06:14.735Z,2.25
2022-10-01T10:09:02.013Z,2.15
2022-10-01T10:11:48.056Z,2.78
2022-10-01T10:14:41.178Z,2.47
2022-10-01T10:17:27.494Z,3.45
2022-10-01T10:20:29.549Z,2.22
2022-10-01T10:23:26.073Z,2.83
2022-10-01T10:26:20.313Z,2.80
2022-10-01T10:29:08.601Z,2.95
2022-10-01T10:31:55.411Z,3.38
2022-10-01T10:34:46.362Z,2.65
2022-10-01T10:37:37.008Z,2.90
2022-10-01T10:40:29.341Z,2.33
2022-10-01T10:43:22.783Z,2.40
2022-10-01T10:46:09.728Z,2.47
2022-10-01T10:49:21.791Z,2.70
2022-10-01T10:52:29.904Z,2.38
2022-10-01T10:55:53.454Z,2.85
2022-10-01T10:58:42.309Z,1.90
2022-10-01T11:01:29.645Z,2.55
2022-10-01T11:04:27.828Z,3.42
2022-10-01T11:07:20.614Z,2.58
2022-10-01T11:10:15.024Z,1.80
2022-10-01T11:13:03.268Z,2.65
2022-10-01T11:16:29.526Z,2.30
2022-10-01T11:19:39.408Z,2.65
2022-10-01T11:22:46.547Z,2.45
2022-10-01T11:25:43.925Z,2.22
2022-10-01T11:29:11.959Z,2.42
2022-10-01T11:32:02.886Z,1.95
2022-10-01T11:35:04.606Z,2.38
2022-10-01T11:37:53.162Z,1.98
2022-10-01T11:41:06.727Z,2.45
2022-10-01T11:44:01.473Z,2.00
2022-10-01T11:46:56.479Z,2.72
2022-10-01T11:49:59.900Z,2.92
2022-10-01T11:53:00.193Z,2.22
2022-10-01T11:56:14.978Z,2.35
2022-10-01T11:59:03.745Z,2.40
2022-10-01T12:01:54.779Z,2.90
2022-10-01T12:04:58.194Z,3.03
2022-10-01T12:10:55.057Z,3.03
2022-10-01T12:13:45.700Z,2.95
2022-10-01T12:16:56.966Z,2.05
2022-10-01T12:19:46.817Z,1.90
2022-10-01T12:22:36.358Z,2.03
2022-10-01T12:25:29.402Z,2.35
2022-10-01T12:28:25.934Z,2.85
2022-10-01T12:31:32.729Z,2.30
2022-10-01T12:34:51.725Z,2.30
2022-10-01T12:38:18.068Z,2.72
2022-10-01T12:41:09.551Z,2.95
2022-10-01T12:44:22.704Z,2.88
2022-10-01T12:47:36.527Z,3.03
2022-10-01T12:50:55.078Z,2.28
2022-10-01T12:54:02.263Z,2.50
2022-10-01T12:57:13.865Z,2.28
2022-10-01T13:00:20.679Z,2.00
2022-10-01T13:03:18.310Z,2.85
2022-10-01T13:06:22.398Z,2.65
2022-10-01T13:09:33.682Z,3.25
2022-10-01T13:12:43.664Z,2.33
2022-10-01T13:15:35.052Z,2.70
2022-10-01T13:18:42.970Z,1.83
2022-10-01T13:21:55.552Z,2.65
2022-10-01T13:24:49.908Z,2.13
2022-10-01T13:27:42.651Z,2.25
2022-10-01T13:30:41.392Z,2.58
2022-10-01T13:33:29.244Z,2.28
2022-10-01T13:36:17.427Z,2.42
2022-10-01T13:39:03.202Z,2.38
2022-10-01T13:41:50.587Z,2.83
2022-10-01T13:44:36.558Z,2.95
2022-10-01T13:47:23.650Z,2.47
2022-10-01T13:50:24.339Z,2.08
2022-10-01T13:53:20.667Z,2.72
2022-10-01T13:56:06.432Z,2.58
2022-10-01T13:58:53.124Z,2.33
2022-10-01T14:01:41.318Z,2.80
2022-10-01T14:04:41.383Z,2.40
2022-10-01T14:07:32.791Z,2.88
2022-10-01T14:10:19.409Z,2.47
2022-10-01T14:13:23.781Z,2.40
2022-10-01T14:16:09.638Z,2.80
2022-10-01T14:18:56.378Z,2.38
2022-10-01T14:21:49.754Z,2.17
2022-10-01T14:24:49.026Z,2.55
2022-10-01T14:27:49.980Z,2.38
2022-10-01T14:30:46.349Z,2.58
2022-10-01T14:33:37.862Z,2.50
2022-10-01T14:36:42.015Z,2.25
2022-10-01T14:39:29.494Z,2.80
2022-10-01T14:42:18.621Z,2.53
2022-10-01T14:45:16.411Z,2.67
2022-10-01T14:48:03.851Z,2.50
2022-10-01T14:50:55.115Z,3.53
2022-10-01T14:53:42.832Z,2.20
2022-10-01T14:56:29.093Z,3.45
2022-10-01T14:59:29.949Z,2.55
2022-10-01T15:02:21.564Z,2.40
2022-10-01T15:05:28.935Z,1.90
2022-10-01T15:08:15.509Z,2.03
2022-10-01T15:11:05.008Z,2.15
2022-10-01T15:13:53.125Z,2.63
2022-10-01T15:16:39.168Z,1.98
2022-10-01T15:19:25.046Z,2.45
2022-10-01T15:22:12.913Z,2.10
2022-10-01T15:25:01.336Z,2.50
2022-10-01T15:27:48.665Z,1.90
2022-10-01T15:30:36.845Z,2.05
2022-10-01T15:33:28.642Z,2.28
2022-10-01T15:36:17.979Z,2.67
2022-10-01T15:39:18.233Z,1.98
2022-10-01T15:42:28.196Z,2.55
2022-10-01T15:45:25.786Z,2.17
2022-10-01T15:48:29.238Z,2.38
2022-10-01T15:51:20.927Z,2.35
2022-10-01T15:54:09.058Z,2.60
2022-10-01T15:56:54.918Z,1.67
2022-10-01T15:59:40.823Z,2.60
2022-10-01T16:02:30.202Z,2.20
2022-10-01T16:05:20.336Z,1.80
2022-10-01T16:08:05.736Z,1.63
2022-10-01T16:11:13.442Z,2.42
2022-10-01T16:14:37.311Z,1.77
2022-10-01T16:17:28.692Z,3.30
2022-10-01T16:20:17.000Z,2.10
2022-10-01T16:23:39.639Z,2.33
2022-10-01T16:26:28.157Z,2.17
2022-10-01T16:29:13.475Z,2.88
2022-10-01T16:32:01.149Z,2.50
2022-10-01T16:34:48.184Z,2.10
2022-10-01T16:37:34.048Z,2.70
2022-10-01T16:40:30.672Z,2.50
2022-10-01T16:43:24.320Z,2.28
2022-10-01T16:46:09.874Z,2.85
2022-10-01T16:48:55.379Z,2.05
2022-10-01T16:51:42.414Z,2.92
2022-10-01T16:54:28.070Z,1.95
2022-10-01T16:57:15.399Z,3.22
2022-10-01T17:00:02.107Z,2.42
2022-10-01T17:02:48.022Z,1.73
2022-10-01T17:05:38.712Z,2.05
2022-10-01T17:08:24.252Z,2.08
2022-10-01T17:11:12.751Z,3.05
2022-10-01T17:13:58.435Z,2.53
2022-10-01T17:16:45.394Z,2.70
2022-10-01T17:19:31.044Z,2.10
2022-10-01T17:22:16.567Z,2.17
2022-10-01T17:25:02.011Z,2.67
2022-10-01T17:27:47.855Z,2.00
2022-10-01T17:30:33.796Z,2.75
2022-10-01T17:33:19.839Z,2.38
2022-10-01T17:36:09.186Z,2.85
2022-10-01T17:38:54.831Z,2.67
2022-10-01T17:41:40.353Z,1.95
2022-10-01T17:44:26.805Z,3.40
2022-10-01T17:47:12.311Z,2.35
2022-10-01T17:49:58.027Z,2.30
2022-10-01T17:52:46.460Z,2.17
2022-10-01T17:55:33.767Z,3.33
2022-10-01T17:58:19.667Z,3.40
2022-10-01T18:01:13.416Z,3.17
2022-10-01T18:04:00.654Z,3.30
2022-10-01T18:06:48.001Z,3.28
2022-10-01T18:09:35.451Z,3.47
2022-10-01T18:12:21.255Z,2.85
2022-10-01T18:15:07.157Z,2.10
2022-10-01T18:18:48.546Z,2.90
2022-10-01T18:21:04.431Z,3.00
2022-10-01T18:23:49.874Z,2.92
2022-10-01T18:26:35.691Z,3.03
2022-10-01T18:29:24.496Z,3.30
2022-10-01T18:32:16.403Z,2.25
2022-10-01T18:35:03.997Z,2.53
2022-10-01T18:37:54.727Z,2.70
2022-10-01T18:40:44.122Z,2.63
2022-10-01T18:43:32.745Z,2.70
2022-10-01T18:46:38.468Z,3.05
2022-10-01T18:49:33.439Z,2.30
2022-10-01T18:52:46.213Z,3.42
2022-10-01T18:55:58.825Z,2.03
2022-10-01T18:59:14.714Z,2.20
2022-10-01T19:02:12.017Z,2.40
2022-10-01T19:05:06.689Z,3.25
2022-10-01T19:08:12.496Z,4.03
2022-10-01T19:11:05.661Z,2.30
2022-10-01T19:13:50.888Z,2.40
2022-10-01T19:16:39.463Z,3.10
2022-10-01T19:19:52.628Z,2.97
2022-10-01T19:23:00.971Z,4.00
2022-10-01T19:26:10.470Z,2.30
2022-10-01T19:29:01.461Z,2.38
2022-10-01T19:31:55.402Z,3.90
2022-10-01T19:34:47.021Z,3.42
2022-10-01T19:37:39.349Z,2.40
2022-10-01T19:40:38.954Z,2.50
2022-10-01T19:43:54.123Z,3.13
2022-10-01T19:46:45.556Z,2.90
2022-10-01T19:49:38.289Z,2.38
2022-10-01T19:52:25.167Z,2.37
2022-10-01T19:55:15.979Z,3.00
2022-10-01T19:58:02.423Z,3.20
2022-10-01T20:00:53.782Z,3.53
2022-10-01T20:03:42.956Z,3.42
2022-10-01T20:06:37.203Z,3.50
2022-10-01T20:09:23.362Z,2.40
2022-10-01T20:12:31.676Z,3.22
2022-10-01T20:15:37.935Z,2.53
2022-10-01T20:18:58.358Z,3.38
2022-10-01T20:21:46.645Z,2.75
2022-10-01T20:24:38.093Z,2.67
2022-10-01T20:27:49.297Z,2.88
2022-10-01T20:30:48.357Z,2.90
2022-10-01T20:33:43.096Z,2.63
2022-10-01T20:36:58.374Z,1.95
2022-10-01T20:39:49.399Z,2.38
2022-10-01T20:42:41.471Z,2.10
2022-10-01T20:45:28.899Z,2.47
2022-10-01T20:48:22.087Z,1.58
2022-10-01T20:51:30.895Z,1.85
2022-10-01T20:54:23.496Z,2.22
2022-10-01T20:57:21.188Z,1.98
2022-10-01T21:00:23.562Z,2.25
2022-10-01T21:03:24.406Z,2.35
2022-10-01T21:06:15.125Z,2.17
2022-10-01T21:09:18.079Z,2.13
2022-10-01T21:12:27.046Z,2.20
2022-10-01T21:15:14.632Z,2.38
2022-10-01T21:18:22.999Z,2.25
2022-10-01T21:21:16.839Z,2.58
2022-10-01T21:24:32.944Z,1.77
2022-10-01T21:27:26.446Z,1.90
2022-10-01T21:30:16.938Z,2.00
2022-10-01T21:33:15.429Z,1.77
2022-10-01T21:36:10.693Z,1.90
2022-10-01T21:39:05.313Z,2.78
2022-10-01T21:42:08.850Z,2.28
2022-10-01T21:44:56.847Z,2.00
2022-10-01T21:47:52.097Z,1.95
2022-10-01T21:51:17.472Z,2.95
2022-10-01T21:54:44.992Z,2.00
2022-10-01T21:57:51.621Z,2.22
2022-10-01T22:00:37.404Z,2.63
2022-10-01T22:03:31.158Z,2.38
2022-10-01T22:06:36.116Z,2.25
2022-10-01T22:09:44.299Z,2.60
2022-10-01T22:12:34.584Z,2.97
2022-10-01T22:15:29.102Z,2.83
2022-10-01T22:18:29.548Z,2.42
2022-10-01T22:21:35.405Z,3.47
2022-10-01T22:24:36.682Z,4.05
2022-10-01T22:27:39.784Z,3.55
2022-10-01T22:30:28.912Z,3.72
2022-10-01T22:33:22.982Z,4.20
2022-10-01T22:36:15.565Z,4.18
2022-10-01T22:39:07.593Z,4.00
2022-10-01T22:42:19.015Z,2.97
2022-10-01T22:45:16.949Z,4.03
2022-10-01T22:48:18.379Z,4.13
2022-10-01T22:51:14.336Z,2.85
2022-10-01T22:54:34.843Z,2.60
2022-10-01T22:57:52.719Z,3.97
2022-10-01T23:01:04.153Z,3.25
2022-10-01T23:04:15.167Z,3.63
2022-10-01T23:07:24.757Z,3.22
2022-10-01T23:10:16.287Z,2.70
2022-10-01T23:13:07.298Z,2.83
2022-10-01T23:16:04.949Z,4.28
2022-10-01T23:19:13.365Z,4.85
2022-10-01T23:22:10.277Z,6.03
2022-10-01T23:25:23.775Z,3.03
2022-10-01T23:28:45.339Z,3.53
2022-10-01T23:31:40.340Z,4.40
2022-10-01T23:34:36.345Z,3.03
2022-10-01T23:37:21.809Z,2.97
2022-10-01T23:40:21.151Z,3.50
2022-10-01T23:43:24.210Z,3.20
2022-10-01T23:46:21.415Z,2.70
2022-10-01T23:49:16.445Z,3.30
2022-10-01T23:52:10.572Z,2.72
2022-10-01T23:55:21.462Z,2.88
2022-10-01T23:58:11.134Z,3.10
